Time,TemperatureF,DewpointF,PressureIn,WindDirection,WindDirectionDegrees,WindSpeedMPH,WindSpeedGustMPH,Humidity,HourlyPrecipIn,Conditions,Clouds,dailyrainin,SoftwareType,DateUTC
2013-02-04 00:11:00,29.0,18.0,-100.00,WSW,250,9.0,14.0,61,-99.99,,,0.00,,2013-02-04 07:11:00,
2013-02-04 00:21:00,29.0,18.0,-100.00,WSW,250,9.0,14.0,61,-99.99,,,0.00,,2013-02-04 07:21:00,
2013-02-04 01:01:00,27.0,15.0,-100.00,SW,230,13.0,16.0,59,-99.99,,,0.00,,2013-02-04 08:01:00,
2013-02-04 01:11:00,28.0,15.0,-100.00,WSW,240,11.0,14.0,59,-99.99,,,0.00,,2013-02-04 08:11:00,
2013-02-04 01:21:00,28.0,15.0,-100.00,WSW,240,11.0,14.0,59,-99.99,,,0.00,,2013-02-04 08:21:00,
2013-02-04 01:31:00,27.0,15.0,-100.00,SW,230,13.0,16.0,59,-99.99,,,0.00,,2013-02-04 08:31:00,
2013-02-04 01:41:00,27.0,15.0,-100.00,SW,230,13.0,16.0,59,-99.99,,,0.00,,2013-02-04 08:41:00,
2013-02-04 01:52:00,27.0,15.0,-100.00,SW,230,13.0,16.0,59,-99.99,,,0.00,,2013-02-04 08:52:00,
2013-02-04 02:01:00,29.0,16.0,-100.00,SW,230,14.0,20.0,57,-99.99,,,0.00,,2013-02-04 09:01:00,
2013-02-04 02:11:00,28.0,16.0,-100.00,WSW,245,12.0,16.0,59,-99.99,,,0.00,,2013-02-04 09:11:00,
2013-02-04 02:21:00,28.0,16.0,-100.00,WSW,245,12.0,16.0,59,-99.99,,,0.00,,2013-02-04 09:21:00,
2013-02-04 02:30:00,29.0,16.0,-100.00,SW,230,16.0,21.0,57,-99.99,,,0.00,,2013-02-04 09:30:00,
2013-02-04 02:31:00,29.0,16.0,-100.00,SW,230,14.0,20.0,57,-99.99,,,0.00,,2013-02-04 09:31:00,
2013-02-04 02:41:00,29.0,16.0,-100.00,SW,230,14.0,20.0,57,-99.99,,,0.00,,2013-02-04 09:41:00,
2013-02-04 02:51:00,29.0,16.0,-100.00,SW,230,14.0,20.0,57,-99.99,,,0.00,,2013-02-04 09:51:00,
2013-02-04 03:11:00,29.0,16.0,-100.00,SW,230,16.0,21.0,57,-99.99,,,0.00,,2013-02-04 10:11:00,
2013-02-04 03:21:00,29.0,16.0,-100.00,SW,230,16.0,21.0,57,-99.99,,,0.00,,2013-02-04 10:21:00,
2013-02-04 04:01:00,29.0,16.0,-100.00,West,260,11.0,21.0,57,-99.99,,,0.00,,2013-02-04 11:01:00,
2013-02-04 04:11:00,29.0,15.0,-100.00,West,260,12.0,19.0,56,-99.99,,,0.00,,2013-02-04 11:11:00,
2013-02-04 04:22:00,29.0,15.0,-100.00,West,260,12.0,19.0,56,-99.99,,,0.00,,2013-02-04 11:22:00,
2013-02-04 04:32:00,29.0,16.0,-100.00,West,260,11.0,21.0,57,-99.99,,,0.00,,2013-02-04 11:32:00,
2013-02-04 04:42:00,29.0,16.0,-100.00,West,260,11.0,21.0,57,-99.99,,,0.00,,2013-02-04 11:42:00,
2013-02-04 04:52:00,29.0,16.0,-100.00,West,260,11.0,21.0,57,-99.99,,,0.00,,2013-02-04 11:52:00,
2013-02-04 05:01:00,29.0,16.0,-100.00,SW,235,16.0,20.0,59,-99.99,,,0.00,,2013-02-04 12:01:00,
2013-02-04 05:12:00,29.0,15.0,-100.00,West,265,16.0,19.0,54,-99.99,,,0.00,,2013-02-04 12:12:00,
2013-02-04 05:21:00,29.0,15.0,-100.00,West,265,16.0,19.0,54,-99.99,,,0.00,,2013-02-04 12:21:00,
2013-02-04 05:31:00,29.0,17.0,-100.00,WSW,240,16.0,22.0,61,-99.99,,,0.00,,2013-02-04 12:31:00,
2013-02-04 05:32:00,29.0,16.0,-100.00,SW,235,16.0,20.0,59,-99.99,,,0.00,,2013-02-04 12:32:00,
2013-02-04 05:42:00,29.0,16.0,-100.00,SW,235,16.0,20.0,59,-99.99,,,0.00,,2013-02-04 12:42:00,
2013-02-04 05:52:00,29.0,16.0,-100.00,SW,235,16.0,20.0,59,-99.99,,,0.00,,2013-02-04 12:52:00,
2013-02-04 06:12:00,29.0,17.0,-100.00,WSW,240,16.0,22.0,61,-99.99,,,0.00,,2013-02-04 13:12:00,
2013-02-04 06:21:00,29.0,17.0,-100.00,WSW,240,16.0,22.0,61,-99.99,,,0.00,,2013-02-04 13:21:00,
2013-02-04 06:31:00,29.0,19.0,-100.00,WSW,240,17.0,24.0,67,-99.99,,,0.00,,2013-02-04 13:31:00,
2013-02-04 07:11:00,29.0,19.0,-100.00,WSW,240,17.0,24.0,67,-99.99,,,0.00,,2013-02-04 14:11:00,
2013-02-04 07:21:00,29.0,19.0,-100.00,WSW,240,17.0,24.0,67,-99.99,,,0.00,,2013-02-04 14:21:00,
2013-02-04 08:01:00,29.0,19.0,-100.00,WSW,255,14.0,20.0,68,-99.99,,,0.00,,2013-02-04 15:01:00,
2013-02-04 08:12:00,29.0,19.0,-100.00,WSW,245,17.0,20.0,65,-99.99,,,0.00,,2013-02-04 15:12:00,
2013-02-04 08:23:00,29.0,19.0,-100.00,WSW,245,17.0,20.0,65,-99.99,,,0.00,,2013-02-04 15:23:00,
2013-02-04 08:30:00,29.0,20.0,-100.00,West,265,11.0,18.0,68,-99.99,,,0.00,,2013-02-04 15:30:00,
2013-02-04 08:33:00,29.0,19.0,-100.00,WSW,255,14.0,20.0,68,-99.99,,,0.00,,2013-02-04 15:33:00,
2013-02-04 08:43:00,29.0,19.0,-100.00,WSW,255,14.0,20.0,68,-99.99,,,0.00,,2013-02-04 15:43:00,
2013-02-04 08:52:00,29.0,19.0,-100.00,WSW,255,14.0,20.0,68,-99.99,,,0.00,,2013-02-04 15:52:00,
2013-02-04 09:11:00,29.0,20.0,-100.00,West,265,11.0,18.0,68,-99.99,,,0.00,,2013-02-04 16:11:00,
2013-02-04 09:22:00,29.0,20.0,-100.00,West,265,11.0,18.0,68,-99.99,,,0.00,,2013-02-04 16:22:00,
2013-02-04 10:01:00,29.0,21.0,-100.00,WSW,240,14.0,17.0,73,-99.99,,,0.00,,2013-02-04 17:01:00,
2013-02-04 10:42:00,29.0,21.0,-100.00,WSW,240,14.0,17.0,73,-99.99,,,0.00,,2013-02-04 17:42:00,
2013-02-04 10:51:00,29.0,21.0,-100.00,WSW,240,14.0,17.0,73,-99.99,,,0.00,,2013-02-04 17:51:00,
2013-02-04 11:01:00,30.0,24.0,-100.00,SW,220,19.0,23.0,78,-99.99,,,0.00,,2013-02-04 18:01:00,
2013-02-04 11:11:00,30.0,21.0,-100.00,SW,225,16.0,18.0,70,-99.99,,,0.00,,2013-02-04 18:11:00,
2013-02-04 11:22:00,30.0,21.0,-100.00,SW,225,16.0,18.0,70,-99.99,,,0.00,,2013-02-04 18:22:00,
2013-02-04 11:31:00,30.0,24.0,-100.00,SW,220,19.0,23.0,78,-99.99,,,0.00,,2013-02-04 18:31:00,
2013-02-04 11:41:00,30.0,24.0,-100.00,SW,220,19.0,23.0,78,-99.99,,,0.00,,2013-02-04 18:41:00,
2013-02-04 11:52:00,30.0,24.0,-100.00,SW,220,19.0,23.0,78,-99.99,,,0.00,,2013-02-04 18:52:00,
2013-02-04 12:01:00,30.0,23.0,-100.00,SW,230,11.0,21.0,74,-99.99,,,0.00,,2013-02-04 19:01:00,
2013-02-04 12:11:00,30.0,23.0,-100.00,SW,220,14.0,19.0,76,-99.99,,,0.00,,2013-02-04 19:11:00,
2013-02-04 12:22:00,30.0,23.0,-100.00,SW,220,14.0,19.0,76,-99.99,,,0.00,,2013-02-04 19:22:00,
2013-02-04 12:31:00,30.0,23.0,-100.00,SW,230,11.0,21.0,74,-99.99,,,0.00,,2013-02-04 19:31:00,
2013-02-04 12:41:00,30.0,23.0,-100.00,SW,230,11.0,21.0,74,-99.99,,,0.00,,2013-02-04 19:41:00,
2013-02-04 12:51:00,30.0,23.0,-100.00,SW,230,11.0,21.0,74,-99.99,,,0.00,,2013-02-04 19:51:00,
2013-02-04 13:12:00,30.0,23.0,-100.00,SW,235,20.0,26.0,75,-99.99,,,0.00,,2013-02-04 20:12:00,
2013-02-04 13:21:00,30.0,23.0,-100.00,SW,235,20.0,26.0,75,-99.99,,,0.00,,2013-02-04 20:21:00,
2013-02-04 13:52:00,30.0,23.0,-100.00,SW,230,19.0,22.0,75,-99.99,,,0.00,,2013-02-04 20:52:00,
2013-02-04 14:00:00,31.0,23.0,-100.00,WSW,245,11.0,20.0,73,-99.99,,,0.00,,2013-02-04 21:00:00,
2013-02-04 14:02:00,30.0,23.0,-100.00,SW,230,19.0,22.0,75,-99.99,,,0.00,,2013-02-04 21:02:00,
2013-02-04 14:11:00,30.0,23.0,-100.00,WSW,240,16.0,24.0,74,-99.99,,,0.00,,2013-02-04 21:11:00,
2013-02-04 14:22:00,30.0,23.0,-100.00,WSW,240,16.0,24.0,74,-99.99,,,0.00,,2013-02-04 21:22:00,
2013-02-04 14:31:00,31.0,23.0,-100.00,WSW,245,11.0,20.0,73,-99.99,,,0.00,,2013-02-04 21:31:00,
2013-02-04 14:42:00,31.0,23.0,-100.00,WSW,245,11.0,20.0,73,-99.99,,,0.00,,2013-02-04 21:42:00,
2013-02-04 14:51:00,31.0,23.0,-100.00,WSW,245,11.0,20.0,73,-99.99,,,0.00,,2013-02-04 21:51:00,
2013-02-04 15:00:00,31.0,23.0,-100.00,SW,230,13.0,22.0,70,-99.99,,,0.00,,2013-02-04 22:00:00,
2013-02-04 15:12:00,30.0,23.0,-100.00,SW,230,15.0,20.0,73,-99.99,,,0.00,,2013-02-04 22:12:00,
2013-02-04 15:21:00,30.0,23.0,-100.00,SW,230,15.0,20.0,73,-99.99,,,0.00,,2013-02-04 22:21:00,
2013-02-04 15:32:00,31.0,23.0,-100.00,SW,230,13.0,22.0,70,-99.99,,,0.00,,2013-02-04 22:32:00,
2013-02-04 15:41:00,31.0,23.0,-100.00,SW,230,13.0,22.0,70,-99.99,,,0.00,,2013-02-04 22:41:00,
2013-02-04 15:51:00,31.0,23.0,-100.00,SW,230,13.0,22.0,70,-99.99,,,0.00,,2013-02-04 22:51:00,
2013-02-04 16:01:00,31.0,23.0,-100.00,WSW,240,12.0,27.0,71,-99.99,,,0.00,,2013-02-04 23:01:00,
2013-02-04 16:11:00,32.0,23.0,-100.00,SW,230,17.0,24.0,70,-99.99,,,0.00,,2013-02-04 23:11:00,
2013-02-04 16:21:00,32.0,23.0,-100.00,SW,230,17.0,24.0,70,-99.99,,,0.00,,2013-02-04 23:21:00,
2013-02-04 16:32:00,31.0,23.0,-100.00,WSW,240,12.0,27.0,71,-99.99,,,0.00,,2013-02-04 23:32:00,
2013-02-04 16:41:00,31.0,23.0,-100.00,WSW,240,12.0,27.0,71,-99.99,,,0.00,,2013-02-04 23:41:00,
2013-02-04 16:52:00,31.0,23.0,-100.00,WSW,240,12.0,27.0,71,-99.99,,,0.00,,2013-02-04 23:52:00,
2013-02-04 17:01:00,31.0,23.0,-100.00,WSW,250,10.0,18.0,74,-99.99,,,0.00,,2013-02-05 00:01:00,
2013-02-04 17:11:00,31.0,23.0,-100.00,SW,235,16.0,22.0,74,-99.99,,,0.00,,2013-02-05 00:11:00,
2013-02-04 17:21:00,31.0,23.0,-100.00,SW,235,16.0,22.0,74,-99.99,,,0.00,,2013-02-05 00:21:00,
2013-02-04 17:31:00,31.0,23.0,-100.00,WSW,250,10.0,18.0,74,-99.99,,,0.00,,2013-02-05 00:31:00,
2013-02-04 17:42:00,31.0,23.0,-100.00,WSW,250,10.0,18.0,74,-99.99,,,0.00,,2013-02-05 00:42:00,
2013-02-04 17:51:00,31.0,23.0,-100.00,WSW,250,10.0,18.0,74,-99.99,,,0.00,,2013-02-05 00:51:00,
2013-02-04 18:01:00,30.0,22.0,-100.00,SW,235,12.0,16.0,71,-99.99,,,0.00,,2013-02-05 01:01:00,
2013-02-04 18:11:00,30.0,23.0,-100.00,SW,230,15.0,22.0,73,-99.99,,,0.00,,2013-02-05 01:11:00,
2013-02-04 18:21:00,30.0,23.0,-100.00,SW,230,15.0,22.0,73,-99.99,,,0.00,,2013-02-05 01:21:00,
2013-02-04 18:32:00,30.0,22.0,-100.00,SW,235,12.0,16.0,71,-99.99,,,0.00,,2013-02-05 01:32:00,
2013-02-04 18:42:00,30.0,22.0,-100.00,SW,235,12.0,16.0,71,-99.99,,,0.00,,2013-02-05 01:42:00,
2013-02-04 18:51:00,30.0,22.0,-100.00,SW,235,12.0,16.0,71,-99.99,,,0.00,,2013-02-05 01:51:00,
2013-02-04 19:01:00,30.0,22.0,-100.00,WNW,300,6.0,7.0,72,-99.99,,,0.00,,2013-02-05 02:01:00,
2013-02-04 19:31:00,30.0,22.0,-100.00,WNW,300,6.0,7.0,72,-99.99,,,0.00,,2013-02-05 02:31:00,
2013-02-04 19:41:00,30.0,22.0,-100.00,WNW,300,6.0,7.0,72,-99.99,,,0.00,,2013-02-05 02:41:00,
2013-02-04 19:52:00,30.0,22.0,-100.00,WNW,300,6.0,7.0,72,-99.99,,,0.00,,2013-02-05 02:52:00,
2013-02-04 20:11:00,29.0,22.0,-100.00,West,260,7.0,12.0,74,-99.99,,,0.00,,2013-02-05 03:11:00,
2013-02-04 20:21:00,29.0,22.0,-100.00,West,260,7.0,12.0,74,-99.99,,,0.00,,2013-02-05 03:21:00,
2013-02-04 20:31:00,28.0,21.0,-100.00,WSW,250,9.0,12.0,74,-99.99,,,0.00,,2013-02-05 03:31:00,
2013-02-04 20:42:00,28.0,21.0,-100.00,WSW,250,9.0,12.0,74,-99.99,,,0.00,,2013-02-05 03:42:00,
2013-02-04 20:51:00,28.0,21.0,-100.00,WSW,250,9.0,12.0,74,-99.99,,,0.00,,2013-02-05 03:51:00,
2013-02-04 21:01:00,28.0,21.0,-100.00,WSW,250,9.0,12.0,74,-99.99,,,0.00,,2013-02-05 04:01:00,
2013-02-04 21:11:00,29.0,21.0,-100.00,West,260,9.0,13.0,73,-99.99,,,0.00,,2013-02-05 04:11:00,
2013-02-04 21:21:00,29.0,21.0,-100.00,West,260,9.0,13.0,73,-99.99,,,0.00,,2013-02-05 04:21:00,
2013-02-04 22:11:00,28.0,20.0,-100.00,West,280,7.0,11.0,73,-99.99,,,0.00,,2013-02-05 05:11:00,
2013-02-04 22:21:00,28.0,20.0,-100.00,West,280,7.0,11.0,73,-99.99,,,0.00,,2013-02-05 05:21:00,
2013-02-04 22:31:00,30.0,21.0,-100.00,West,265,4.0,9.0,70,-99.99,,,0.00,,2013-02-05 05:31:00,
2013-02-04 22:42:00,30.0,21.0,-100.00,West,265,4.0,9.0,70,-99.99,,,0.00,,2013-02-05 05:42:00,
2013-02-04 22:52:00,30.0,21.0,-100.00,West,265,4.0,9.0,70,-99.99,,,0.00,,2013-02-05 05:52:00,
2013-02-04 23:01:00,30.0,21.0,-100.00,West,265,4.0,9.0,70,-99.99,,,0.00,,2013-02-05 06:01:00,
2013-02-04 23:11:00,29.0,21.0,-100.00,WNW,300,4.0,8.0,71,-99.99,,,0.00,,2013-02-05 06:11:00,
2013-02-04 23:21:00,29.0,21.0,-100.00,WNW,300,4.0,8.0,71,-99.99,,,0.00,,2013-02-05 06:21:00,
2013-02-04 23:31:00,29.0,21.0,-100.00,NW,325,3.0,7.0,71,-99.99,,,0.00,,2013-02-05 06:31:00,
2013-02-04 23:42:00,29.0,21.0,-100.00,NW,325,3.0,7.0,71,-99.99,,,0.00,,2013-02-05 06:42:00,
2013-02-04 23:51:00,29.0,21.0,-100.00,NW,325,3.0,7.0,71,-99.99,,,0.00,,2013-02-05 06:51:00,